Terminal Aerodrome Forecast
Issued by NWS

Home | Current Version | Previous Version | Text Only | Print | Product List | Glossary On
Versions: 1 2 3 4 5 6 7 8 9 10 11 12 13 14 15 16 17
000
FTUS43 KDTX 242320
TAFPTK
TAF
KPTK 242320Z 2500/2524 27015G23KT P6SM SCT070
     FM250100 24007KT P6SM SCT070
     FM251400 26016G26KT P6SM BKN040
     FM251800 26016G26KT P6SM BKN045
     FM252000 26016G26KT P6SM VCSH BKN045=

USA.gov is the U.S. government's official web portal to all federal, state and local government web resources and services.